Time;durP1;ratioP1;P1;durP2;ratioP2;P2;SDS_P1;SDS_P2;PMS_P1;PMS_P2;Temp;Humidity;BMP_temperature;BMP_pressure;BME280_temperature;BME280_humidity;BME280_pressure;Samples;Min_cycle;Max_cycle;Signal;HPM_P1;HPM_P2
2021/01/24 00:00:30;;;;;;;18.88;11.05;;;3.50;99.90;;;4.43;82.29;98217.09;5036098;28;20032;-82
2021/01/24 00:02:56;;;;;;;19.80;10.75;;;3.50;99.90;;;4.45;82.52;98223.06;5036006;28;20527;-82
2021/01/24 00:05:22;;;;;;;14.68;9.75;;;3.50;99.90;;;4.42;83.02;98215.53;5054026;28;20033;-84
2021/01/24 00:07:49;;;;;;;16.38;10.00;;;3.40;99.90;;;4.43;82.99;98206.06;5036157;28;20036;-81
2021/01/24 00:10:17;;;;;;;16.77;10.20;;;3.50;99.90;;;4.43;84.10;98211.59;5036411;28;20029;-82
2021/01/24 00:12:44;;;;;;;18.95;10.35;;;3.40;99.90;;;4.37;84.56;98206.75;5053995;28;20071;-78
2021/01/24 00:15:11;;;;;;;14.20;9.35;;;3.40;99.90;;;4.41;84.27;98219.47;5036570;28;20025;-82
2021/01/24 00:17:37;;;;;;;17.42;9.68;;;3.40;99.90;;;4.44;84.13;98218.72;5052955;28;20472;-84
2021/01/24 00:20:04;;;;;;;17.20;9.65;;;3.40;99.90;;;4.39;84.61;98210.75;5035788;28;20033;-82
2021/01/24 00:22:30;;;;;;;18.33;11.55;;;3.50;99.90;;;4.37;85.15;98209.53;5053603;28;20039;-82
2021/01/24 00:24:57;;;;;;;21.95;12.60;;;3.40;99.90;;;4.41;85.23;98205.66;5053359;28;20465;-83
2021/01/24 00:27:23;;;;;;;23.23;13.13;;;3.40;99.90;;;4.44;85.08;98207.66;5053790;28;20037;-83
2021/01/24 00:29:51;;;;;;;108.07;50.28;;;3.40;99.90;;;4.40;85.55;98220.63;5035611;28;20076;-82
2021/01/24 00:32:18;;;;;;;18.88;11.18;;;3.40;99.90;;;4.38;85.77;98213.88;5053386;28;20503;-84
2021/01/24 00:34:44;;;;;;;18.15;11.25;;;3.40;99.90;;;4.36;85.64;98214.28;5038908;28;20032;-83
2021/01/24 00:37:13;;;;;;;21.10;12.38;;;3.40;99.90;;;4.35;85.77;98211.88;5039346;28;20028;-82
2021/01/24 00:39:39;;;;;;;18.02;10.43;;;3.40;99.90;;;4.34;85.59;98213.03;5039033;28;20120;-82
2021/01/24 00:42:05;;;;;;;22.17;12.07;;;3.40;99.90;;;4.35;85.34;98211.88;5039199;28;20048;-83
2021/01/24 00:44:31;;;;;;;15.15;8.98;;;3.40;99.90;;;4.35;85.92;98212.69;5040171;28;20029;-82
2021/01/24 00:46:57;;;;;;;11.95;7.45;;;3.40;99.90;;;4.23;86.54;98210.97;5058613;28;20032;-83
2021/01/24 00:49:23;;;;;;;12.73;6.45;;;3.30;99.90;;;4.22;86.59;98211.31;5040435;28;20040;-84
2021/01/24 00:51:49;;;;;;;9.07;6.25;;;3.30;99.90;;;4.19;86.85;98212.06;5040536;28;20055;-82
2021/01/24 00:54:15;;;;;;;12.32;8.15;;;3.30;99.90;;;4.07;87.53;98209.56;5039436;28;20124;-82
2021/01/24 00:56:41;;;;;;;11.20;6.53;;;3.30;99.90;;;4.00;87.70;98212.22;5057611;28;20113;-83
2021/01/24 00:59:07;;;;;;;7.88;5.20;;;3.20;99.90;;;3.77;88.40;98212.28;5039601;28;20053;-83
2021/01/24 01:01:32;;;;;;;7.15;5.03;;;3.10;99.90;;;3.78;88.46;98208.34;5057268;28;20041;-82
2021/01/24 01:03:58;;;;;;;8.90;5.47;;;3.00;99.90;;;3.71;88.87;98211.00;5058604;28;20048;-82
2021/01/24 01:06:24;;;;;;;8.80;5.60;;;2.90;99.90;;;3.70;88.96;98212.97;5057353;28;20044;-81
2021/01/24 01:08:50;;;;;;;9.82;6.28;;;2.90;99.90;;;3.60;88.99;98215.56;5041092;28;20029;-83
2021/01/24 01:11:16;;;;;;;31.00;14.30;;;2.80;99.90;;;3.54;88.98;98206.00;5040340;28;20106;-83
2021/01/24 01:13:41;;;;;;;8.82;6.53;;;2.70;99.90;;;3.50;88.84;98221.72;5057029;28;20531;-83
2021/01/24 01:16:08;;;;;;;7.30;4.85;;;2.70;99.90;;;3.40;89.35;98209.34;5044909;28;20025;-84
2021/01/24 01:18:34;;;;;;;8.20;5.30;;;2.60;99.90;;;3.26;90.13;98214.63;5057457;28;20012;-83
2021/01/24 01:21:01;;;;;;;9.27;5.88;;;2.50;99.90;;;3.23;90.37;98204.31;5076374;28;20070;-81
2021/01/24 01:23:27;;;;;;;9.38;5.65;;;2.50;99.90;;;3.26;90.57;98211.88;5059798;28;20104;-82
2021/01/24 01:25:54;;;;;;;9.68;5.65;;;2.50;99.90;;;3.34;90.41;98216.31;5059098;28;20059;-82
2021/01/24 01:28:21;;;;;;;34.08;14.13;;;2.50;99.90;;;3.29;90.58;98210.31;5056296;28;20044;-87
2021/01/24 01:30:47;;;;;;;17.50;8.73;;;2.50;99.90;;;3.44;89.95;98212.16;5045221;28;20485;-86
2021/01/24 01:33:14;;;;;;;8.82;4.82;;;2.50;99.90;;;3.34;90.19;98213.56;5039751;28;20504;-85
2021/01/24 01:35:40;;;;;;;12.75;6.80;;;2.50;99.90;;;3.42;89.77;98207.00;5040445;28;20133;-85
2021/01/24 01:38:06;;;;;;;11.27;5.72;;;2.50;99.90;;;3.39;90.28;98215.22;5040039;28;20480;-83
2021/01/24 01:40:32;;;;;;;18.55;7.60;;;2.50;99.90;;;3.27;91.07;98213.47;5039343;28;20036;-82
2021/01/24 01:42:58;;;;;;;19.88;9.93;;;2.50;99.90;;;3.24;90.93;98214.22;5038898;28;20025;-82
2021/01/24 01:45:24;;;;;;;30.00;13.05;;;2.40;99.90;;;3.34;90.76;98213.56;5056177;28;20032;-82
2021/01/24 01:47:53;;;;;;;46.30;17.88;;;2.40;99.90;;;3.21;91.45;98211.38;5042161;28;20025;-84
2021/01/24 01:50:20;;;;;;;44.88;18.30;;;2.40;99.90;;;3.25;90.87;98212.22;5065070;28;20084;-84
2021/01/24 01:52:47;;;;;;;38.70;16.65;;;2.30;99.90;;;3.22;91.13;98210.19;5050112;28;20029;-83
2021/01/24 01:55:14;;;;;;;11.05;5.93;;;2.40;99.90;;;3.10;91.46;98212.00;5058053;28;20029;-83
2021/01/24 01:57:41;;;;;;;54.80;20.42;;;2.40;99.90;;;3.05;91.90;98214.28;5051210;28;20064;-80
2021/01/24 02:00:10;;;;;;;13.45;5.63;;;2.30;99.90;;;3.19;91.18;98208.97;5059353;28;20029;-81
2021/01/24 02:03:25;;;;;;;25.73;10.52;;;2.30;99.90;;;3.18;91.09;98205.41;5049362;28;20037;-84
2021/01/24 02:06:16;;;;;;;19.48;7.38;;;2.30;99.90;;;3.26;90.91;98211.88;5059115;28;20067;-83
2021/01/24 02:09:24;;;;;;;34.53;12.35;;;2.30;99.90;;;3.24;91.10;98205.13;5053173;28;20020;-81
2021/01/24 02:12:06;;;;;;;68.45;25.60;;;2.30;99.90;;;3.26;90.93;98216.59;5074030;28;20240;-82
2021/01/24 02:14:44;;;;;;;18.88;7.05;;;2.30;99.90;;;3.21;90.95;98211.38;5048828;28;20100;-82
2021/01/24 02:17:17;;;;;;;7.95;2.78;;;2.30;99.90;;;3.14;91.37;98212.06;5039366;28;20025;-83
2021/01/24 02:20:00;;;;;;;19.65;8.25;;;2.30;99.90;;;3.06;91.09;98215.84;5040231;28;20033;-83
2021/01/24 02:22:34;;;;;;;13.68;8.25;;;2.20;99.90;;;3.05;91.10;98217.03;5046111;28;20025;-80
2021/01/24 02:25:19;;;;;;;11.32;5.28;;;2.20;99.90;;;3.01;91.04;98216.16;5047995;28;20032;-80
2021/01/24 02:28:24;;;;;;;4.22;1.90;;;2.20;99.90;;;2.86;91.01;98214.31;5066594;28;20036;-80
2021/01/24 02:30:53;;;;;;;2.85;1.40;;;2.10;99.90;;;2.70;91.42;98214.38;5056234;28;20120;-83
2021/01/24 02:33:26;;;;;;;3.58;1.75;;;2.00;99.90;;;2.71;91.59;98223.47;5048302;28;20052;-82
2021/01/24 02:35:57;;;;;;;1.77;1.40;;;1.90;99.90;;;2.65;91.59;98222.97;5040088;28;20469;-83
2021/01/24 02:38:26;;;;;;;3.65;2.63;;;1.90;99.90;;;2.56;91.62;98222.41;5057452;28;20063;-82
2021/01/24 02:40:55;;;;;;;3.55;2.38;;;1.80;99.90;;;2.62;91.55;98223.69;5039676;28;20435;-82
2021/01/24 02:43:23;;;;;;;4.63;2.45;;;1.70;99.90;;;2.62;91.03;98221.75;5039053;28;20029;-82
2021/01/24 02:45:52;;;;;;;3.95;2.05;;;1.70;99.90;;;2.48;91.55;98234.44;5055801;28;20029;-82
2021/01/24 02:48:19;;;;;;;2.28;1.33;;;1.70;99.90;;;2.34;91.70;98234.16;5038296;28;20021;-83
2021/01/24 02:50:48;;;;;;;2.60;1.92;;;1.60;99.90;;;2.33;91.56;98238.06;5037818;28;20439;-82
2021/01/24 02:53:16;;;;;;;2.95;1.55;;;1.50;99.90;;;2.32;91.82;98245.53;5039221;28;20469;-81
2021/01/24 02:55:44;;;;;;;3.70;1.40;;;1.40;99.90;;;2.22;92.15;98237.03;5038486;28;20043;-82
2021/01/24 02:58:10;;;;;;;3.35;1.52;;;1.40;99.90;;;2.18;92.08;98245.25;5038408;28;20392;-80
2021/01/24 03:00:36;;;;;;;2.78;1.58;;;1.30;99.90;;;2.20;91.65;98242.91;5056772;28;20036;-81
2021/01/24 03:03:03;;;;;;;2.20;1.90;;;1.30;99.90;;;2.19;91.83;98243.25;5055349;28;20090;-81
2021/01/24 03:05:31;;;;;;;4.25;1.80;;;1.30;99.90;;;2.19;91.73;98249.56;5056560;28;20384;-80
2021/01/24 03:07:58;;;;;;;2.47;1.75;;;1.30;99.90;;;2.13;91.75;98254.56;5039236;28;20047;-79
2021/01/24 03:10:25;;;;;;;2.15;1.65;;;1.20;99.90;;;2.14;91.95;98255.38;5039688;28;20057;-81
2021/01/24 03:13:15;;;;;;;1.60;1.50;;;1.20;99.90;;;2.09;92.27;98252.88;5055449;28;20029;-82
2021/01/24 03:15:44;;;;;;;3.47;1.90;;;1.20;99.90;;;2.08;91.95;98245.81;5038658;28;20036;-82
2021/01/24 03:18:20;;;;;;;1.95;1.50;;;1.10;99.90;;;2.08;92.31;98252.09;5037406;28;20025;-80
2021/01/24 03:20:52;;;;;;;3.17;1.60;;;1.10;99.90;;;2.05;92.29;98252.84;5036439;28;20029;-83
2021/01/24 03:23:21;;;;;;;3.25;1.73;;;1.10;99.90;;;2.01;92.44;98257.47;5035595;28;20087;-84
2021/01/24 03:25:49;;;;;;;1.90;1.52;;;1.10;99.90;;;2.01;92.16;98259.41;5053293;28;20033;-83
2021/01/24 03:28:16;;;;;;;2.60;1.73;;;1.00;99.90;;;2.02;92.56;98266.50;5036262;28;20025;-83
2021/01/24 03:30:42;;;;;;;3.50;2.20;;;1.00;99.90;;;1.99;92.44;98265.25;5036203;28;20048;-83
2021/01/24 03:33:09;;;;;;;3.85;2.22;;;1.00;99.90;;;2.03;92.71;98266.13;5036645;28;20107;-82
2021/01/24 03:35:36;;;;;;;3.45;2.05;;;1.00;99.90;;;2.01;92.46;98262.97;5036718;28;20083;-82
2021/01/24 03:38:03;;;;;;;4.28;2.70;;;1.00;99.90;;;2.03;92.69;98270.84;5054606;28;20477;-81
2021/01/24 03:40:29;;;;;;;3.75;2.70;;;1.00;99.90;;;2.01;92.61;98262.97;5054266;28;20036;-82
2021/01/24 03:42:55;;;;;;;4.05;2.50;;;1.00;99.90;;;2.01;92.81;98275.91;5036127;28;20385;-82
2021/01/24 03:45:21;;;;;;;4.35;2.80;;;1.00;99.90;;;1.98;92.90;98271.13;5035488;28;20043;-79
2021/01/24 03:47:47;;;;;;;4.82;3.30;;;1.00;99.90;;;2.00;92.94;98277.06;5054094;28;20067;-81
2021/01/24 03:50:13;;;;;;;5.25;2.67;;;1.00;99.90;;;1.95;93.03;98271.84;5055669;28;20078;-84
2021/01/24 03:52:41;;;;;;;6.32;3.45;;;1.00;99.90;;;1.95;93.18;98277.34;5038145;28;20029;-81
2021/01/24 03:55:08;;;;;;;5.07;3.22;;;1.00;99.90;;;1.98;92.84;98284.91;5038335;28;20104;-82
2021/01/24 03:57:34;;;;;;;6.88;3.72;;;1.00;99.90;;;1.97;93.00;98286.03;5053464;28;20022;-81
2021/01/24 04:00:01;;;;;;;6.90;4.40;;;1.00;99.90;;;1.96;93.11;98289.94;5035818;28;20029;-82
2021/01/24 04:02:29;;;;;;;9.52;4.60;;;1.00;99.90;;;1.97;92.93;98281.34;5052284;28;20472;-84
2021/01/24 04:04:54;;;;;;;6.35;4.28;;;1.00;99.90;;;1.98;92.85;98291.22;5053724;28;20551;-84
2021/01/24 04:07:20;;;;;;;7.03;4.90;;;1.00;99.90;;;1.94;93.08;98287.56;5037041;28;20185;-82
2021/01/24 04:09:46;;;;;;;8.65;5.75;;;1.00;99.90;;;1.98;93.60;98293.16;5058049;28;20064;-85
2021/01/24 04:12:13;;;;;;;10.30;5.65;;;1.00;99.90;;;1.99;93.53;98297.53;5039920;28;20029;-84
2021/01/24 04:14:39;;;;;;;8.63;5.43;;;1.00;99.90;;;1.94;93.15;98289.53;5058865;28;20035;-82
2021/01/24 04:17:06;;;;;;;8.07;5.40;;;1.00;99.90;;;1.98;93.46;98306.91;5040509;28;20028;-84
2021/01/24 04:19:33;;;;;;;9.77;6.45;;;1.00;99.90;;;1.97;93.48;98303.38;5058376;28;20033;-82
2021/01/24 04:21:59;;;;;;;8.75;5.63;;;1.00;99.90;;;1.97;93.32;98308.06;5057661;28;20029;-83
2021/01/24 04:24:25;;;;;;;9.07;6.03;;;1.00;99.90;;;1.96;93.46;98311.97;5058844;28;20040;-86
2021/01/24 04:26:52;;;;;;;11.63;6.63;;;1.00;99.90;;;1.97;93.35;98306.13;5073512;28;20025;-80
2021/01/24 04:29:20;;;;;;;10.35;6.32;;;1.00;99.90;;;1.96;93.43;98314.72;5073087;28;20047;-81
2021/01/24 04:31:46;;;;;;;10.00;6.30;;;1.00;99.90;;;1.95;93.20;98315.91;5058216;28;20033;-83
2021/01/24 04:34:13;;;;;;;10.18;6.30;;;1.00;99.90;;;1.91;93.32;98317.75;5058263;28;20103;-82
2021/01/24 04:36:39;;;;;;;10.13;6.40;;;1.00;99.90;;;1.92;93.32;98317.41;5039905;28;20037;-84
2021/01/24 04:39:07;;;;;;;13.27;7.93;;;0.90;99.90;;;1.92;93.55;98324.88;5057978;28;20033;-84
2021/01/24 04:41:38;;;;;;;12.73;8.27;;;1.00;99.90;;;1.94;93.53;98331.59;5039579;28;20378;-84
2021/01/24 04:44:07;;;;;;;16.02;9.05;;;1.00;99.90;;;1.97;93.61;98332.84;5055734;28;20043;-85
2021/01/24 04:46:35;;;;;;;18.02;9.55;;;1.00;99.90;;;1.98;93.59;98335.25;5039766;28;20052;-84
2021/01/24 04:49:04;;;;;;;19.42;10.43;;;1.00;99.90;;;1.99;93.49;98331.31;5039875;28;20032;-85
2021/01/24 04:51:30;;;;;;;24.13;13.43;;;1.00;99.90;;;2.07;93.71;98344.13;5057702;28;20079;-85
2021/01/24 04:53:58;;;;;;;26.50;14.55;;;1.10;99.90;;;2.07;93.62;98341.34;5039049;28;20029;-84
2021/01/24 04:56:24;;;;;;;25.00;14.07;;;1.10;99.90;;;2.07;93.58;98346.06;5057397;28;20531;-83
2021/01/24 04:58:54;;;;;;;26.60;14.95;;;1.10;99.90;;;2.07;93.89;98346.06;5039626;28;20025;-84
2021/01/24 05:01:24;;;;;;;31.50;17.20;;;1.10;99.90;;;2.13;94.00;98353.69;5038521;28;20033;-84
2021/01/24 05:03:50;;;;;;;31.80;17.98;;;1.10;99.90;;;2.15;93.86;98350.59;5038881;28;20401;-82
2021/01/24 05:06:16;;;;;;;35.08;19.48;;;1.20;99.90;;;2.15;93.85;98355.31;5038589;28;20119;-82
2021/01/24 05:08:45;;;;;;;36.95;20.08;;;1.20;99.90;;;2.19;93.77;98362.47;5038310;28;20040;-82
2021/01/24 05:11:13;;;;;;;36.42;20.85;;;1.20;99.90;;;2.20;94.09;98364.06;5037999;28;20436;-80
2021/01/24 05:13:39;;;;;;;33.28;19.30;;;1.20;99.90;;;2.25;93.62;98369.28;5038165;28;20032;-82
2021/01/24 05:16:07;;;;;;;33.08;19.75;;;1.30;99.90;;;2.22;93.38;98374.72;5038810;28;20029;-84
2021/01/24 05:18:34;;;;;;;36.72;21.17;;;1.30;99.90;;;2.20;93.54;98377.84;5038685;28;20037;-82
2021/01/24 05:21:03;;;;;;;37.38;20.77;;;1.30;99.90;;;2.20;93.77;98374.28;5037466;28;20043;-83
2021/01/24 05:23:29;;;;;;;39.00;21.23;;;1.20;99.90;;;2.17;93.46;98375.81;5055229;28;20033;-80
2021/01/24 05:25:57;;;;;;;38.80;21.63;;;1.20;99.90;;;2.17;93.69;98386.81;5056509;28;20043;-81
2021/01/24 05:28:29;;;;;;;37.33;21.42;;;1.20;99.90;;;2.16;93.83;98381.66;5038072;28;20075;-81
2021/01/24 05:31:06;;;;;;;35.25;20.40;;;1.20;99.90;;;2.12;93.50;98389.84;5036703;28;20040;-83
2021/01/24 05:33:33;;;;;;;36.40;20.27;;;1.20;99.90;;;2.10;93.42;98392.16;5055423;28;20408;-83
2021/01/24 05:35:59;;;;;;;31.05;18.48;;;1.20;99.90;;;2.08;93.72;98397.22;5056120;28;20040;-82
2021/01/24 05:38:32;;;;;;;30.95;19.70;;;1.20;99.90;;;2.00;93.86;98406.44;5038596;28;20037;-82
2021/01/24 05:41:11;;;;;;;24.13;15.80;;;1.10;99.90;;;2.03;93.65;98403.00;5055397;28;20071;-81
2021/01/24 05:43:43;;;;;;;24.05;16.13;;;1.10;99.90;;;1.94;93.56;98422.44;5107793;22;20036;-81
2021/01/24 05:46:12;;;;;;;22.45;15.60;;;1.10;99.90;;;1.96;93.50;98420.13;5053395;28;20032;-80
2021/01/24 05:48:50;;;;;;;20.65;14.43;;;1.10;99.90;;;1.89;93.87;98424.66;5054342;28;20063;-79
2021/01/24 05:51:16;;;;;;;21.83;14.90;;;1.00;99.90;;;1.85;93.93;98430.09;5052760;28;20084;-79
2021/01/24 05:53:49;;;;;;;20.60;14.20;;;1.00;99.90;;;1.82;93.91;98430.78;5055226;28;20037;-80
2021/01/24 05:56:20;;;;;;;19.67;14.32;;;1.00;99.90;;;1.88;93.97;98437.63;5036877;28;20029;-79
2021/01/24 05:58:58;;;;;;;19.67;13.82;;;1.00;99.90;;;1.84;93.72;98446.94;5053844;28;20040;-80
2021/01/24 06:01:26;;;;;;;19.05;13.60;;;0.90;99.90;;;1.86;93.67;98448.19;5054328;28;20028;-80
2021/01/24 06:04:00;;;;;;;17.45;12.65;;;0.90;99.90;;;1.79;93.56;98452.72;5035287;28;20123;-79
2021/01/24 06:06:26;;;;;;;18.75;13.60;;;0.90;99.90;;;1.75;94.00;98462.81;5053515;28;20032;-81
2021/01/24 06:08:52;;;;;;;18.50;13.63;;;0.90;99.90;;;1.77;93.66;98461.31;5053636;28;20496;-79
2021/01/24 06:11:19;;;;;;;18.08;13.27;;;0.90;99.90;;;1.72;94.24;98467.09;5052058;28;20055;-82
2021/01/24 06:13:51;;;;;;;18.52;12.82;;;0.90;99.90;;;1.71;94.33;98475.69;5035942;28;20036;-82
2021/01/24 06:16:36;;;;;;;17.35;12.88;;;0.80;99.90;;;1.75;94.25;98479.34;5035826;28;20353;-81
2021/01/24 06:19:11;;;;;;;13.70;9.82;;;0.90;99.90;;;1.75;94.02;98482.09;5054105;28;20096;-81
2021/01/24 06:21:54;;;;;;;23.80;15.65;;;0.80;99.90;;;1.77;94.63;98486.06;5036677;28;20036;-81
2021/01/24 06:24:41;;;;;;;20.20;14.27;;;0.90;99.90;;;1.76;94.17;98500.22;5053038;28;20044;-82
2021/01/24 06:27:15;;;;;;;22.13;15.00;;;0.90;99.90;;;1.74;94.43;98495.03;5035298;28;20028;-80
2021/01/24 06:29:51;;;;;;;21.17;15.45;;;0.90;99.90;;;1.77;94.28;98513.59;5035718;28;20052;-80
2021/01/24 06:32:30;;;;;;;21.92;15.23;;;0.90;99.90;;;1.73;94.69;98518.22;5035234;28;20029;-81
2021/01/24 06:35:31;;;;;;;23.58;15.27;;;0.90;99.90;;;1.72;94.33;98515.81;5038965;28;20025;-80
2021/01/24 06:38:01;;;;;;;24.75;15.65;;;0.90;99.90;;;1.64;95.13;98522.28;5039984;28;20075;-81
2021/01/24 06:40:32;;;;;;;25.00;16.52;;;0.90;99.90;;;1.71;94.74;98525.22;5055565;28;20107;-79
2021/01/24 06:43:03;;;;;;;25.45;16.40;;;0.90;99.90;;;1.70;94.68;98527.19;5054963;28;20035;-81
2021/01/24 06:45:28;;;;;;;25.38;16.10;;;0.90;99.90;;;1.69;95.11;98535.78;5056089;28;20543;-80
2021/01/24 06:48:01;;;;;;;22.92;14.95;;;0.90;99.90;;;1.74;94.82;98535.50;5038731;28;20067;-80
2021/01/24 06:50:47;;;;;;;24.60;14.50;;;0.90;99.90;;;1.73;94.43;98551.25;5057420;28;20087;-80
2021/01/24 06:53:23;;;;;;;22.40;13.68;;;0.90;99.90;;;1.78;94.57;98552.94;5042186;28;20074;-81
2021/01/24 06:56:05;;;;;;;21.20;13.48;;;0.90;99.90;;;1.74;94.88;98560.28;5062122;28;20025;-82
2021/01/24 06:58:34;;;;;;;21.17;13.00;;;0.90;99.90;;;1.76;94.61;98567.06;5056786;28;20431;-83
2021/01/24 07:01:31;;;;;;;18.85;11.63;;;0.90;99.90;;;1.69;95.01;98577.06;5039374;28;20029;-83
2021/01/24 07:04:31;;;;;;;17.00;10.70;;;0.90;99.90;;;1.66;94.96;98583.25;5055789;28;20032;-82
2021/01/24 07:07:20;;;;;;;18.45;11.43;;;0.90;99.90;;;1.67;95.16;98593.91;5057220;28;20472;-81
2021/01/24 07:09:47;;;;;;;16.48;10.48;;;0.90;99.90;;;1.68;94.87;98600.19;5045571;28;20025;-83
2021/01/24 07:12:13;;;;;;;19.30;10.73;;;0.80;99.90;;;1.59;95.15;98609.41;5072729;28;20389;-84
2021/01/24 07:14:38;;;;;;;15.45;9.32;;;0.80;99.90;;;1.62;94.91;98607.91;5060957;28;20017;-82
2021/01/24 07:17:14;;;;;;;17.95;10.68;;;0.80;99.90;;;1.61;95.15;98617.31;5018563;28;20033;-82
2021/01/24 07:19:53;;;;;;;18.70;10.73;;;0.80;99.90;;;1.61;95.32;98624.78;5018058;28;20363;-84
2021/01/24 07:22:22;;;;;;;15.27;9.20;;;0.80;99.90;;;1.70;95.30;98615.25;5022713;28;20029;-81
2021/01/24 07:24:52;;;;;;;16.25;8.85;;;0.80;99.90;;;1.72;94.87;98628.63;5044494;28;20026;-83
2021/01/24 07:27:25;;;;;;;18.58;9.95;;;0.90;99.90;;;1.66;95.19;98636.34;5036595;28;20036;-83
2021/01/24 07:29:50;;;;;;;18.75;9.82;;;0.90;99.90;;;1.75;94.93;98642.50;5017868;28;20026;-79
2021/01/24 07:32:24;;;;;;;18.20;9.90;;;0.90;99.90;;;1.79;94.99;98651.66;5034227;28;20040;-80
2021/01/24 07:34:54;;;;;;;16.90;9.55;;;1.00;99.90;;;1.78;95.20;98652.81;5032977;28;20037;-82
2021/01/24 07:37:22;;;;;;;16.17;9.73;;;1.00;99.90;;;1.73;95.04;98664.06;5035460;28;20065;-84
2021/01/24 07:39:52;;;;;;;15.88;10.48;;;1.00;99.90;;;1.82;95.01;98663.94;5033681;28;20021;-81
2021/01/24 07:42:19;;;;;;;17.95;10.02;;;1.00;99.90;;;1.86;94.93;98668.38;5017260;28;20126;-81
2021/01/24 07:44:46;;;;;;;13.85;9.23;;;1.10;99.90;;;1.90;94.41;98672.03;5042338;28;20116;-85
2021/01/24 07:47:15;;;;;;;20.10;11.68;;;1.10;99.90;;;1.88;94.77;98681.78;5043809;28;20025;-83
2021/01/24 07:49:41;;;;;;;17.02;10.27;;;1.10;99.90;;;1.99;94.40;98685.69;5024349;28;20029;-83
2021/01/24 07:52:08;;;;;;;18.15;11.18;;;1.10;99.90;;;2.00;93.95;98690.00;5042967;28;20041;-83
2021/01/24 07:54:39;;;;;;;20.98;12.30;;;1.20;99.90;;;1.99;94.26;98694.72;5041821;28;20501;-83
2021/01/24 07:57:07;;;;;;;20.23;12.88;;;1.20;99.90;;;2.02;94.07;98702.28;5020757;28;20030;-82
2021/01/24 07:59:34;;;;;;;23.65;14.02;;;1.20;99.90;;;1.97;94.64;98707.22;5037489;28;20425;-83
2021/01/24 08:02:02;;;;;;;23.42;13.45;;;1.20;99.90;;;2.04;94.26;98707.44;5038737;28;20037;-81
2021/01/24 08:04:29;;;;;;;22.63;13.57;;;1.20;99.90;;;2.03;94.21;98722.34;5036289;28;20339;-81
2021/01/24 08:06:55;;;;;;;25.38;15.07;;;1.20;99.90;;;2.08;94.31;98727.63;5019656;28;20037;-80
2021/01/24 08:09:22;;;;;;;26.92;15.15;;;1.30;99.90;;;2.09;94.04;98729.22;5039158;28;20044;-84
2021/01/24 08:11:49;;;;;;;25.77;15.27;;;1.30;99.90;;;2.11;94.03;98735.19;5038622;28;20026;-80
2021/01/24 08:14:15;;;;;;;27.67;15.20;;;1.20;99.90;;;2.14;94.17;98742.75;5020074;28;20028;-82
2021/01/24 08:16:48;;;;;;;27.95;16.77;;;1.30;99.90;;;2.15;94.07;98736.13;5021376;28;20057;-83
2021/01/24 08:19:23;;;;;;;31.75;17.20;;;1.30;99.90;;;2.20;93.87;98744.13;5022650;28;20033;-80
2021/01/24 08:21:51;;;;;;;29.73;16.98;;;1.30;99.90;;;2.20;93.78;98752.38;5039631;28;20133;-81
2021/01/24 08:24:18;;;;;;;31.17;16.98;;;1.30;99.90;;;2.23;93.80;98748.13;5022991;28;20056;-82
2021/01/24 08:26:44;;;;;;;27.88;15.95;;;1.30;99.90;;;2.25;93.61;98760.38;5039059;28;20095;-80
2021/01/24 08:29:11;;;;;;;29.27;16.95;;;1.30;99.90;;;2.26;93.55;98761.19;5020602;28;20132;-79
2021/01/24 08:31:40;;;;;;;30.67;17.15;;;1.30;99.90;;;2.25;93.66;98773.38;5020542;28;20034;-80
2021/01/24 08:34:07;;;;;;;31.40;16.98;;;1.30;99.90;;;2.31;93.41;98777.50;5020440;28;20026;-81
2021/01/24 08:36:33;;;;;;;30.77;16.67;;;1.40;99.90;;;2.29;93.42;98783.34;5037074;28;20068;-80
2021/01/24 08:38:59;;;;;;;30.85;17.17;;;1.40;99.90;;;2.27;93.20;98774.63;5031889;28;20024;-81
2021/01/24 08:41:34;;;;;;;30.60;17.15;;;1.40;99.90;;;2.29;93.19;98785.28;5049940;28;20091;-82
2021/01/24 08:44:16;;;;;;;26.73;13.30;;;1.40;99.90;;;2.31;93.21;98786.53;5057000;28;20037;-81
2021/01/24 08:47:06;;;;;;;32.22;17.67;;;1.40;99.90;;;2.31;93.29;98783.00;5055845;28;20036;-82
2021/01/24 08:49:33;;;;;;;35.25;18.08;;;1.30;99.90;;;2.33;93.77;98798.03;5034661;28;20040;-80
2021/01/24 08:52:01;;;;;;;36.38;17.75;;;1.40;99.90;;;2.37;93.26;98796.19;5057343;28;20107;-81
2021/01/24 08:54:34;;;;;;;36.50;18.58;;;1.40;99.90;;;2.35;93.40;98801.22;5060865;28;20028;-80
2021/01/24 08:57:18;;;;;;;38.33;19.65;;;1.40;99.90;;;2.36;93.79;98805.59;5065217;28;20398;-79
2021/01/24 08:59:50;;;;;;;36.50;18.27;;;1.40;99.90;;;2.40;93.73;98812.00;5067250;28;20043;-81
2021/01/24 09:02:34;;;;;;;39.05;18.85;;;1.40;99.90;;;2.45;93.34;98820.03;5050487;28;20025;-81
2021/01/24 09:05:35;;;;;;;40.58;18.25;;;1.50;99.90;;;2.41;93.74;98813.59;5070143;28;20048;-80
2021/01/24 09:08:01;;;;;;;36.95;18.35;;;1.50;99.90;;;2.45;93.41;98822.78;5047006;28;20025;-81
2021/01/24 09:10:31;;;;;;;36.65;19.95;;;1.50;99.90;;;2.43;93.75;98824.28;5059654;28;20029;-84
2021/01/24 09:13:01;;;;;;;44.45;21.92;;;1.50;99.90;;;2.41;93.95;98821.88;5058334;28;20055;-81
2021/01/24 09:15:31;;;;;;;46.58;20.88;;;1.60;99.90;;;2.52;93.79;98833.22;5059178;28;20035;-82
2021/01/24 09:18:00;;;;;;;63.47;26.55;;;1.60;99.90;;;2.58;93.62;98843.63;5057873;28;20031;-80
2021/01/24 09:20:30;;;;;;;44.47;21.80;;;1.60;99.90;;;2.61;94.01;98836.63;5056495;28;20035;-84
2021/01/24 09:22:56;;;;;;;45.13;20.80;;;1.60;99.90;;;2.64;93.83;98841.44;5057732;28;20025;-80
2021/01/24 09:25:23;;;;;;;45.70;22.05;;;1.70;99.90;;;2.64;93.70;98847.75;5039105;28;20083;-82
2021/01/24 09:27:49;;;;;;;45.05;21.23;;;1.70;99.90;;;2.70;93.96;98856.56;5040362;28;20405;-82
2021/01/24 09:30:17;;;;;;;50.03;24.38;;;1.70;99.90;;;2.59;94.12;98849.97;5058699;28;20037;-82
2021/01/24 09:32:44;;;;;;;64.18;28.92;;;1.80;99.90;;;2.64;93.92;98853.25;5057758;28;20052;-83
2021/01/24 09:35:11;;;;;;;61.38;27.98;;;1.80;99.90;;;2.61;94.26;98853.16;5068868;28;20024;-77
2021/01/24 09:37:38;;;;;;;56.75;26.83;;;1.80;99.90;;;2.59;94.13;98852.72;5057533;28;20033;-82
2021/01/24 09:40:08;;;;;;;48.92;24.55;;;1.80;99.90;;;2.63;94.26;98859.16;5059557;28;20150;-81
2021/01/24 09:42:34;;;;;;;63.15;29.10;;;1.80;99.90;;;2.65;94.01;98863.16;5059802;28;20036;-78
2021/01/24 09:45:00;;;;;;;52.90;23.63;;;1.80;99.90;;;2.72;94.02;98859.00;5046040;28;20055;-80
2021/01/24 09:47:26;;;;;;;55.40;26.30;;;1.80;99.90;;;2.67;94.07;98868.28;5041499;28;20048;-79
2021/01/24 09:49:52;;;;;;;49.40;24.90;;;1.90;99.90;;;2.76;93.99;98870.94;5064112;28;20039;-81
2021/01/24 09:52:18;;;;;;;50.05;24.05;;;1.90;99.90;;;2.69;93.74;98878.97;5069031;28;20032;-79
2021/01/24 09:54:43;;;;;;;54.97;26.45;;;1.90;99.90;;;2.66;94.19;98878.50;5077300;28;20526;-79
2021/01/24 09:57:09;;;;;;;51.53;23.90;;;1.90;99.90;;;2.66;94.46;98881.28;5079699;28;20033;-79
2021/01/24 09:59:35;;;;;;;48.45;22.90;;;1.90;99.90;;;2.69;93.96;98881.75;5081744;28;20028;-81
2021/01/24 10:02:01;;;;;;;45.60;22.35;;;1.90;99.90;;;2.69;93.98;98890.00;5071495;28;20036;-82
2021/01/24 10:04:27;;;;;;;46.38;22.08;;;1.90;99.90;;;2.73;93.79;98886.19;5070946;28;20442;-80
2021/01/24 10:06:53;;;;;;;40.13;19.80;;;1.90;99.90;;;2.69;94.11;98890.00;5051881;28;20029;-79
2021/01/24 10:09:18;;;;;;;43.28;20.52;;;1.90;99.90;;;2.69;94.13;98896.34;5053399;28;20096;-78
2021/01/24 10:11:44;;;;;;;45.13;22.42;;;1.90;99.90;;;2.73;93.99;98894.47;5063641;28;20033;-77
2021/01/24 10:14:10;;;;;;;56.22;24.38;;;1.90;99.90;;;2.84;93.54;98897.53;5059936;28;20022;-79
2021/01/24 10:16:36;;;;;;;46.47;23.42;;;2.00;99.90;;;2.88;93.13;98903.97;5048251;28;20059;-80
2021/01/24 10:19:02;;;;;;;56.28;25.40;;;2.00;99.90;;;2.86;93.39;98904.31;5059531;28;20092;-78
2021/01/24 10:21:28;;;;;;;57.67;25.23;;;1.90;99.90;;;2.86;93.63;98914.56;5060793;28;20037;-79
2021/01/24 10:23:54;;;;;;;64.20;27.30;;;1.90;99.90;;;2.79;94.08;98917.91;5078846;28;20028;-80
2021/01/24 10:26:19;;;;;;;67.47;28.33;;;1.90;99.90;;;2.75;94.16;98921.69;5076898;28;20105;-78
2021/01/24 10:28:45;;;;;;;57.47;28.02;;;1.90;99.90;;;2.85;93.63;98923.97;5078706;28;20369;-80
2021/01/24 10:31:11;;;;;;;62.97;28.40;;;1.90;99.90;;;2.85;94.02;98935.00;5061162;28;20025;-79
2021/01/24 10:33:37;;;;;;;57.83;28.25;;;2.00;99.90;;;2.82;94.07;98932.94;5071723;28;20024;-80